sensor_id;sensor_type;location;lat;lon;timestamp;temperature;humidity
12874;DHT22;6505;51.114;13.128;2023-06-14T00:02:13;22.10;43.90
12874;DHT22;6505;51.114;13.128;2023-06-14T00:04:42;22.10;43.90
12874;DHT22;6505;51.114;13.128;2023-06-14T00:07:11;22.00;43.80
12874;DHT22;6505;51.114;13.128;2023-06-14T00:09:40;22.00;43.70
12874;DHT22;6505;51.114;13.128;2023-06-14T00:12:09;22.00;43.70
12874;DHT22;6505;51.114;13.128;2023-06-14T00:14:37;22.00;43.70
12874;DHT22;6505;51.114;13.128;2023-06-14T00:17:05;22.00;43.70
12874;DHT22;6505;51.114;13.128;2023-06-14T00:19:34;21.90;43.70
12874;DHT22;6505;51.114;13.128;2023-06-14T00:22:03;21.90;43.70
12874;DHT22;6505;51.114;13.128;2023-06-14T00:24:33;21.90;43.90
12874;DHT22;6505;51.114;13.128;2023-06-14T00:27:01;21.90;43.70
12874;DHT22;6505;51.114;13.128;2023-06-14T00:29:29;21.90;43.70
12874;DHT22;6505;51.114;13.128;2023-06-14T00:31:58;21.80;43.70
12874;DHT22;6505;51.114;13.128;2023-06-14T00:34:26;21.80;43.60
12874;DHT22;6505;51.114;13.128;2023-06-14T00:36:54;21.80;43.70
12874;DHT22;6505;51.114;13.128;2023-06-14T00:39:22;21.80;43.60
12874;DHT22;6505;51.114;13.128;2023-06-14T00:41:51;21.70;43.70
12874;DHT22;6505;51.114;13.128;2023-06-14T00:44:19;21.80;43.80
12874;DHT22;6505;51.114;13.128;2023-06-14T00:46:48;21.80;43.90
12874;DHT22;6505;51.114;13.128;2023-06-14T00:49:17;21.70;43.80
12874;DHT22;6505;51.114;13.128;2023-06-14T00:51:48;21.70;44.00
12874;DHT22;6505;51.114;13.128;2023-06-14T00:54:16;21.70;43.90
12874;DHT22;6505;51.114;13.128;2023-06-14T00:56:44;21.70;44.00
12874;DHT22;6505;51.114;13.128;2023-06-14T00:59:14;21.60;44.00
12874;DHT22;6505;51.114;13.128;2023-06-14T01:01:42;21.60;44.10
12874;DHT22;6505;51.114;13.128;2023-06-14T01:04:10;21.60;44.00
12874;DHT22;6505;51.114;13.128;2023-06-14T01:06:44;21.60;44.10
12874;DHT22;6505;51.114;13.128;2023-06-14T01:09:22;21.50;44.20
12874;DHT22;6505;51.114;13.128;2023-06-14T01:12:11;21.50;44.40
12874;DHT22;6505;51.114;13.128;2023-06-14T01:14:45;21.50;44.20
12874;DHT22;6505;51.114;13.128;2023-06-14T01:17:15;21.40;44.30
12874;DHT22;6505;51.114;13.128;2023-06-14T01:19:47;21.50;43.90
12874;DHT22;6505;51.114;13.128;2023-06-14T01:22:15;21.40;44.30
12874;DHT22;6505;51.114;13.128;2023-06-14T01:24:44;21.40;44.30
12874;DHT22;6505;51.114;13.128;2023-06-14T01:27:13;21.30;44.40
12874;DHT22;6505;51.114;13.128;2023-06-14T01:29:42;21.30;44.50
12874;DHT22;6505;51.114;13.128;2023-06-14T01:32:14;21.40;44.60
12874;DHT22;6505;51.114;13.128;2023-06-14T01:34:44;21.30;44.80
12874;DHT22;6505;51.114;13.128;2023-06-14T01:37:12;21.30;44.70
12874;DHT22;6505;51.114;13.128;2023-06-14T01:39:42;21.30;44.80
12874;DHT22;6505;51.114;13.128;2023-06-14T01:42:13;21.30;45.00
12874;DHT22;6505;51.114;13.128;2023-06-14T01:44:42;21.30;45.00
12874;DHT22;6505;51.114;13.128;2023-06-14T01:47:12;21.20;45.00
12874;DHT22;6505;51.114;13.128;2023-06-14T01:49:40;21.20;45.00
12874;DHT22;6505;51.114;13.128;2023-06-14T01:52:08;21.20;45.10
12874;DHT22;6505;51.114;13.128;2023-06-14T01:54:36;21.20;45.10
12874;DHT22;6505;51.114;13.128;2023-06-14T01:57:09;21.20;45.30
12874;DHT22;6505;51.114;13.128;2023-06-14T01:59:38;21.10;45.20
12874;DHT22;6505;51.114;13.128;2023-06-14T02:02:06;21.10;45.30
12874;DHT22;6505;51.114;13.128;2023-06-14T02:04:34;21.10;45.30
12874;DHT22;6505;51.114;13.128;2023-06-14T02:07:02;21.10;45.20
12874;DHT22;6505;51.114;13.128;2023-06-14T02:09:30;21.00;45.30
12874;DHT22;6505;51.114;13.128;2023-06-14T02:11:58;21.00;45.20
12874;DHT22;6505;51.114;13.128;2023-06-14T02:14:28;21.00;45.20
12874;DHT22;6505;51.114;13.128;2023-06-14T02:16:56;21.00;45.20
12874;DHT22;6505;51.114;13.128;2023-06-14T02:19:24;21.00;45.30
12874;DHT22;6505;51.114;13.128;2023-06-14T02:21:53;21.00;45.20
12874;DHT22;6505;51.114;13.128;2023-06-14T02:24:21;20.90;45.20
12874;DHT22;6505;51.114;13.128;2023-06-14T02:26:50;21.00;45.20
12874;DHT22;6505;51.114;13.128;2023-06-14T02:29:18;20.90;45.20
12874;DHT22;6505;51.114;13.128;2023-06-14T02:31:47;20.80;45.20
12874;DHT22;6505;51.114;13.128;2023-06-14T02:34:16;20.90;45.50
12874;DHT22;6505;51.114;13.128;2023-06-14T02:36:46;20.80;45.40
12874;DHT22;6505;51.114;13.128;2023-06-14T02:39:14;20.80;45.40
12874;DHT22;6505;51.114;13.128;2023-06-14T02:41:43;20.80;45.60
12874;DHT22;6505;51.114;13.128;2023-06-14T02:44:12;20.80;45.50
12874;DHT22;6505;51.114;13.128;2023-06-14T02:46:41;20.80;45.70
12874;DHT22;6505;51.114;13.128;2023-06-14T02:49:11;20.70;45.40
12874;DHT22;6505;51.114;13.128;2023-06-14T02:51:40;20.70;45.60
12874;DHT22;6505;51.114;13.128;2023-06-14T02:54:07;20.70;45.80
12874;DHT22;6505;51.114;13.128;2023-06-14T02:56:38;20.60;45.60
12874;DHT22;6505;51.114;13.128;2023-06-14T02:59:06;20.60;45.80
12874;DHT22;6505;51.114;13.128;2023-06-14T03:01:36;20.60;45.90
12874;DHT22;6505;51.114;13.128;2023-06-14T03:04:11;20.60;45.90
12874;DHT22;6505;51.114;13.128;2023-06-14T03:06:41;20.70;46.10
12874;DHT22;6505;51.114;13.128;2023-06-14T03:09:12;20.60;46.00
12874;DHT22;6505;51.114;13.128;2023-06-14T03:11:40;20.50;46.00
12874;DHT22;6505;51.114;13.128;2023-06-14T03:14:08;20.50;46.00
12874;DHT22;6505;51.114;13.128;2023-06-14T03:16:37;20.50;46.20
12874;DHT22;6505;51.114;13.128;2023-06-14T03:19:07;20.50;46.20
12874;DHT22;6505;51.114;13.128;2023-06-14T03:21:36;20.50;46.30
12874;DHT22;6505;51.114;13.128;2023-06-14T03:24:06;20.50;46.30
12874;DHT22;6505;51.114;13.128;2023-06-14T03:26:34;20.50;46.50
12874;DHT22;6505;51.114;13.128;2023-06-14T03:29:04;20.50;46.50
12874;DHT22;6505;51.114;13.128;2023-06-14T03:31:33;20.50;46.60
12874;DHT22;6505;51.114;13.128;2023-06-14T03:34:05;20.60;46.70
12874;DHT22;6505;51.114;13.128;2023-06-14T03:36:33;20.60;46.80
12874;DHT22;6505;51.114;13.128;2023-06-14T03:39:03;20.70;46.80
12874;DHT22;6505;51.114;13.128;2023-06-14T03:41:31;20.70;46.90
12874;DHT22;6505;51.114;13.128;2023-06-14T03:43:59;20.70;46.90
12874;DHT22;6505;51.114;13.128;2023-06-14T03:46:27;20.80;46.80
12874;DHT22;6505;51.114;13.128;2023-06-14T03:48:55;20.80;46.80
12874;DHT22;6505;51.114;13.128;2023-06-14T03:51:23;20.80;46.70
12874;DHT22;6505;51.114;13.128;2023-06-14T03:53:52;20.90;46.80
12874;DHT22;6505;51.114;13.128;2023-06-14T03:56:26;20.80;46.60
12874;DHT22;6505;51.114;13.128;2023-06-14T03:58:54;20.90;46.60
12874;DHT22;6505;51.114;13.128;2023-06-14T04:01:25;20.90;46.40
12874;DHT22;6505;51.114;13.128;2023-06-14T04:03:58;20.90;46.50
12874;DHT22;6505;51.114;13.128;2023-06-14T04:06:26;20.90;46.50
12874;DHT22;6505;51.114;13.128;2023-06-14T04:08:59;20.90;46.50
12874;DHT22;6505;51.114;13.128;2023-06-14T04:11:31;20.90;46.60
12874;DHT22;6505;51.114;13.128;2023-06-14T04:13:59;20.90;46.50
12874;DHT22;6505;51.114;13.128;2023-06-14T04:16:28;20.90;46.70
12874;DHT22;6505;51.114;13.128;2023-06-14T04:18:58;21.00;46.80
12874;DHT22;6505;51.114;13.128;2023-06-14T04:21:26;20.90;46.80
12874;DHT22;6505;51.114;13.128;2023-06-14T04:23:57;21.00;47.00
12874;DHT22;6505;51.114;13.128;2023-06-14T04:26:31;21.00;46.90
12874;DHT22;6505;51.114;13.128;2023-06-14T04:29:01;21.10;46.90
12874;DHT22;6505;51.114;13.128;2023-06-14T04:31:33;21.10;47.00
12874;DHT22;6505;51.114;13.128;2023-06-14T04:34:05;21.10;47.00
12874;DHT22;6505;51.114;13.128;2023-06-14T04:36:35;21.10;47.20
12874;DHT22;6505;51.114;13.128;2023-06-14T04:39:04;21.10;47.00
12874;DHT22;6505;51.114;13.128;2023-06-14T04:41:35;21.10;47.20
12874;DHT22;6505;51.114;13.128;2023-06-14T04:44:04;21.10;47.20
12874;DHT22;6505;51.114;13.128;2023-06-14T04:46:39;21.20;47.20
12874;DHT22;6505;51.114;13.128;2023-06-14T04:49:20;21.20;47.20
12874;DHT22;6505;51.114;13.128;2023-06-14T04:51:49;21.20;47.30
12874;DHT22;6505;51.114;13.128;2023-06-14T04:54:25;21.20;47.40
12874;DHT22;6505;51.114;13.128;2023-06-14T04:56:55;21.20;47.30
12874;DHT22;6505;51.114;13.128;2023-06-14T04:59:25;21.20;47.50
12874;DHT22;6505;51.114;13.128;2023-06-14T05:01:53;21.20;47.40
12874;DHT22;6505;51.114;13.128;2023-06-14T05:04:23;21.30;47.70
12874;DHT22;6505;51.114;13.128;2023-06-14T05:06:53;21.20;47.80
12874;DHT22;6505;51.114;13.128;2023-06-14T05:09:21;21.30;48.00
12874;DHT22;6505;51.114;13.128;2023-06-14T05:11:50;21.30;47.90
12874;DHT22;6505;51.114;13.128;2023-06-14T05:14:20;21.20;47.80
12874;DHT22;6505;51.114;13.128;2023-06-14T05:16:50;21.30;48.10
12874;DHT22;6505;51.114;13.128;2023-06-14T05:19:18;21.30;48.10
12874;DHT22;6505;51.114;13.128;2023-06-14T05:21:48;21.30;48.30
12874;DHT22;6505;51.114;13.128;2023-06-14T05:24:16;21.30;48.00
12874;DHT22;6505;51.114;13.128;2023-06-14T05:26:45;21.30;48.00
12874;DHT22;6505;51.114;13.128;2023-06-14T05:29:13;21.40;48.20
12874;DHT22;6505;51.114;13.128;2023-06-14T05:31:42;21.40;48.10
12874;DHT22;6505;51.114;13.128;2023-06-14T05:34:10;21.40;48.20
12874;DHT22;6505;51.114;13.128;2023-06-14T05:36:38;21.40;48.20
12874;DHT22;6505;51.114;13.128;2023-06-14T05:39:06;21.40;48.10
12874;DHT22;6505;51.114;13.128;2023-06-14T05:41:35;21.50;48.30
12874;DHT22;6505;51.114;13.128;2023-06-14T05:44:03;21.50;48.10
12874;DHT22;6505;51.114;13.128;2023-06-14T05:46:31;21.60;48.20
12874;DHT22;6505;51.114;13.128;2023-06-14T05:49:00;21.60;48.10
12874;DHT22;6505;51.114;13.128;2023-06-14T05:51:28;21.70;48.20
12874;DHT22;6505;51.114;13.128;2023-06-14T05:53:56;21.70;48.20
12874;DHT22;6505;51.114;13.128;2023-06-14T05:56:24;21.70;48.20
12874;DHT22;6505;51.114;13.128;2023-06-14T05:58:53;21.70;48.20
12874;DHT22;6505;51.114;13.128;2023-06-14T06:01:20;21.80;48.30
12874;DHT22;6505;51.114;13.128;2023-06-14T06:03:48;21.80;48.40
12874;DHT22;6505;51.114;13.128;2023-06-14T06:06:18;21.80;48.30
12874;DHT22;6505;51.114;13.128;2023-06-14T06:08:46;21.80;48.50
12874;DHT22;6505;51.114;13.128;2023-06-14T06:11:14;21.90;48.30
12874;DHT22;6505;51.114;13.128;2023-06-14T06:13:42;21.90;48.20
12874;DHT22;6505;51.114;13.128;2023-06-14T06:16:10;21.90;48.20
12874;DHT22;6505;51.114;13.128;2023-06-14T06:18:38;22.00;48.20
12874;DHT22;6505;51.114;13.128;2023-06-14T06:21:06;22.00;48.20
12874;DHT22;6505;51.114;13.128;2023-06-14T06:23:36;22.10;48.30
12874;DHT22;6505;51.114;13.128;2023-06-14T06:26:04;22.10;48.40
12874;DHT22;6505;51.114;13.128;2023-06-14T06:28:32;22.20;48.50
12874;DHT22;6505;51.114;13.128;2023-06-14T06:31:00;22.30;48.30
12874;DHT22;6505;51.114;13.128;2023-06-14T06:33:30;22.30;48.20
12874;DHT22;6505;51.114;13.128;2023-06-14T06:35:58;22.30;47.90
12874;DHT22;6505;51.114;13.128;2023-06-14T06:38:26;22.40;47.90
12874;DHT22;6505;51.114;13.128;2023-06-14T06:40:56;22.40;47.90
12874;DHT22;6505;51.114;13.128;2023-06-14T06:43:24;22.50;48.10
12874;DHT22;6505;51.114;13.128;2023-06-14T06:45:52;22.50;47.90
12874;DHT22;6505;51.114;13.128;2023-06-14T06:48:20;22.60;47.90
12874;DHT22;6505;51.114;13.128;2023-06-14T06:50:48;22.60;47.70
12874;DHT22;6505;51.114;13.128;2023-06-14T06:53:17;22.70;47.60
12874;DHT22;6505;51.114;13.128;2023-06-14T06:56:02;22.70;47.40
12874;DHT22;6505;51.114;13.128;2023-06-14T06:58:30;22.70;47.10
12874;DHT22;6505;51.114;13.128;2023-06-14T07:00:58;22.80;46.80
12874;DHT22;6505;51.114;13.128;2023-06-14T07:03:27;22.80;47.00
12874;DHT22;6505;51.114;13.128;2023-06-14T07:05:54;22.90;47.50
12874;DHT22;6505;51.114;13.128;2023-06-14T07:08:22;22.90;46.80
12874;DHT22;6505;51.114;13.128;2023-06-14T07:10:50;23.10;47.00
12874;DHT22;6505;51.114;13.128;2023-06-14T07:13:20;23.10;47.10
12874;DHT22;6505;51.114;13.128;2023-06-14T07:15:48;23.20;47.10
12874;DHT22;6505;51.114;13.128;2023-06-14T07:18:16;23.40;46.80
12874;DHT22;6505;51.114;13.128;2023-06-14T07:20:44;23.50;46.60
12874;DHT22;6505;51.114;13.128;2023-06-14T07:23:13;23.60;46.00
12874;DHT22;6505;51.114;13.128;2023-06-14T07:25:42;23.80;46.00
12874;DHT22;6505;51.114;13.128;2023-06-14T07:28:10;23.90;45.40
12874;DHT22;6505;51.114;13.128;2023-06-14T07:30:39;24.00;45.40
12874;DHT22;6505;51.114;13.128;2023-06-14T07:33:07;24.00;44.60
12874;DHT22;6505;51.114;13.128;2023-06-14T07:35:38;24.10;44.50
12874;DHT22;6505;51.114;13.128;2023-06-14T07:38:08;24.10;44.80
12874;DHT22;6505;51.114;13.128;2023-06-14T07:40:36;24.40;44.80
12874;DHT22;6505;51.114;13.128;2023-06-14T07:43:04;24.60;44.50
12874;DHT22;6505;51.114;13.128;2023-06-14T07:45:32;24.90;44.40
12874;DHT22;6505;51.114;13.128;2023-06-14T07:48:01;25.40;44.30
12874;DHT22;6505;51.114;13.128;2023-06-14T07:50:30;25.80;43.40
12874;DHT22;6505;51.114;13.128;2023-06-14T07:52:58;26.20;42.50
12874;DHT22;6505;51.114;13.128;2023-06-14T07:55:26;26.60;42.00
12874;DHT22;6505;51.114;13.128;2023-06-14T07:58:05;27.10;41.40
12874;DHT22;6505;51.114;13.128;2023-06-14T08:00:34;27.60;40.80
12874;DHT22;6505;51.114;13.128;2023-06-14T08:03:04;28.00;39.40
12874;DHT22;6505;51.114;13.128;2023-06-14T08:05:32;28.40;38.50
12874;DHT22;6505;51.114;13.128;2023-06-14T08:08:00;28.80;37.50
12874;DHT22;6505;51.114;13.128;2023-06-14T08:10:28;29.00;36.40
12874;DHT22;6505;51.114;13.128;2023-06-14T08:12:56;29.20;36.00
12874;DHT22;6505;51.114;13.128;2023-06-14T08:15:24;29.40;36.00
12874;DHT22;6505;51.114;13.128;2023-06-14T08:17:53;29.50;35.70
12874;DHT22;6505;51.114;13.128;2023-06-14T08:20:23;29.70;35.50
12874;DHT22;6505;51.114;13.128;2023-06-14T08:22:51;29.80;35.70
12874;DHT22;6505;51.114;13.128;2023-06-14T08:25:21;29.90;34.70
12874;DHT22;6505;51.114;13.128;2023-06-14T08:27:49;30.00;34.50
12874;DHT22;6505;51.114;13.128;2023-06-14T08:30:18;30.00;34.60
12874;DHT22;6505;51.114;13.128;2023-06-14T08:32:46;30.10;34.30
12874;DHT22;6505;51.114;13.128;2023-06-14T08:35:26;30.10;34.20
12874;DHT22;6505;51.114;13.128;2023-06-14T08:37:53;30.10;33.50
12874;DHT22;6505;51.114;13.128;2023-06-14T08:40:23;30.00;32.60
12874;DHT22;6505;51.114;13.128;2023-06-14T08:42:53;30.00;32.60
12874;DHT22;6505;51.114;13.128;2023-06-14T08:45:23;30.00;32.80
12874;DHT22;6505;51.114;13.128;2023-06-14T08:47:55;29.90;32.60
12874;DHT22;6505;51.114;13.128;2023-06-14T08:50:28;29.80;32.50
12874;DHT22;6505;51.114;13.128;2023-06-14T08:53:00;29.70;32.80
12874;DHT22;6505;51.114;13.128;2023-06-14T08:55:31;29.70;32.40
12874;DHT22;6505;51.114;13.128;2023-06-14T08:58:04;29.60;32.90
12874;DHT22;6505;51.114;13.128;2023-06-14T09:00:32;29.50;33.00
12874;DHT22;6505;51.114;13.128;2023-06-14T09:03:01;29.50;33.30
12874;DHT22;6505;51.114;13.128;2023-06-14T09:05:31;29.40;33.00
12874;DHT22;6505;51.114;13.128;2023-06-14T09:07:59;29.30;32.80
12874;DHT22;6505;51.114;13.128;2023-06-14T09:10:32;29.30;32.70
12874;DHT22;6505;51.114;13.128;2023-06-14T09:13:02;29.20;32.70
12874;DHT22;6505;51.114;13.128;2023-06-14T09:15:30;29.20;32.80
12874;DHT22;6505;51.114;13.128;2023-06-14T09:18:01;29.10;32.90
12874;DHT22;6505;51.114;13.128;2023-06-14T09:20:31;29.10;33.00
12874;DHT22;6505;51.114;13.128;2023-06-14T09:23:01;29.00;33.10
12874;DHT22;6505;51.114;13.128;2023-06-14T09:25:31;28.90;32.90
12874;DHT22;6505;51.114;13.128;2023-06-14T09:28:09;28.90;33.10
12874;DHT22;6505;51.114;13.128;2023-06-14T09:30:37;28.70;32.80
12874;DHT22;6505;51.114;13.128;2023-06-14T09:33:06;28.70;32.60
12874;DHT22;6505;51.114;13.128;2023-06-14T09:35:35;28.50;32.90
12874;DHT22;6505;51.114;13.128;2023-06-14T09:38:04;28.40;32.60
12874;DHT22;6505;51.114;13.128;2023-06-14T09:40:36;28.20;32.20
12874;DHT22;6505;51.114;13.128;2023-06-14T09:43:06;28.10;33.10
12874;DHT22;6505;51.114;13.128;2023-06-14T09:45:37;27.90;33.10
12874;DHT22;6505;51.114;13.128;2023-06-14T09:48:08;27.80;32.50
12874;DHT22;6505;51.114;13.128;2023-06-14T09:50:39;27.70;32.40
12874;DHT22;6505;51.114;13.128;2023-06-14T09:53:10;27.60;33.00
12874;DHT22;6505;51.114;13.128;2023-06-14T09:55:41;27.40;33.30
12874;DHT22;6505;51.114;13.128;2023-06-14T09:58:10;27.30;33.50
12874;DHT22;6505;51.114;13.128;2023-06-14T10:00:40;27.30;33.60
12874;DHT22;6505;51.114;13.128;2023-06-14T10:03:12;27.20;33.70
12874;DHT22;6505;51.114;13.128;2023-06-14T10:05:44;27.10;34.00
12874;DHT22;6505;51.114;13.128;2023-06-14T10:08:15;26.90;34.30
12874;DHT22;6505;51.114;13.128;2023-06-14T10:10:45;26.90;34.50
12874;DHT22;6505;51.114;13.128;2023-06-14T10:13:14;26.70;34.50
12874;DHT22;6505;51.114;13.128;2023-06-14T10:15:52;26.70;34.70
12874;DHT22;6505;51.114;13.128;2023-06-14T10:18:32;26.70;35.40
12874;DHT22;6505;51.114;13.128;2023-06-14T10:21:21;26.50;35.20
12874;DHT22;6505;51.114;13.128;2023-06-14T10:23:56;26.50;35.00
12874;DHT22;6505;51.114;13.128;2023-06-14T10:26:28;26.40;35.20
12874;DHT22;6505;51.114;13.128;2023-06-14T10:28:58;26.40;35.30
12874;DHT22;6505;51.114;13.128;2023-06-14T10:31:42;26.30;35.30
12874;DHT22;6505;51.114;13.128;2023-06-14T10:34:12;26.30;35.20
12874;DHT22;6505;51.114;13.128;2023-06-14T10:36:43;26.20;34.90
12874;DHT22;6505;51.114;13.128;2023-06-14T10:39:15;26.20;34.90
12874;DHT22;6505;51.114;13.128;2023-06-14T10:41:52;26.10;35.40
12874;DHT22;6505;51.114;13.128;2023-06-14T10:44:32;26.10;35.70
12874;DHT22;6505;51.114;13.128;2023-06-14T10:47:01;26.10;35.90
12874;DHT22;6505;51.114;13.128;2023-06-14T10:49:41;26.10;36.00
12874;DHT22;6505;51.114;13.128;2023-06-14T10:52:13;26.00;36.30
12874;DHT22;6505;51.114;13.128;2023-06-14T10:55:05;26.00;36.50
12874;DHT22;6505;51.114;13.128;2023-06-14T10:57:39;25.90;36.50
12874;DHT22;6505;51.114;13.128;2023-06-14T11:00:13;25.90;36.30
12874;DHT22;6505;51.114;13.128;2023-06-14T11:02:56;25.80;36.40
12874;DHT22;6505;51.114;13.128;2023-06-14T11:05:51;25.80;35.80
12874;DHT22;6505;51.114;13.128;2023-06-14T11:08:39;25.80;35.70
12874;DHT22;6505;51.114;13.128;2023-06-14T11:11:17;25.70;35.90
12874;DHT22;6505;51.114;13.128;2023-06-14T11:13:51;25.60;35.80
12874;DHT22;6505;51.114;13.128;2023-06-14T11:16:19;25.50;36.20
12874;DHT22;6505;51.114;13.128;2023-06-14T11:18:48;25.50;36.10
12874;DHT22;6505;51.114;13.128;2023-06-14T11:21:17;25.40;36.60
12874;DHT22;6505;51.114;13.128;2023-06-14T11:23:50;25.40;37.00
12874;DHT22;6505;51.114;13.128;2023-06-14T11:26:26;25.50;37.00
12874;DHT22;6505;51.114;13.128;2023-06-14T11:28:56;25.40;37.10
12874;DHT22;6505;51.114;13.128;2023-06-14T11:31:25;25.30;36.50
12874;DHT22;6505;51.114;13.128;2023-06-14T11:33:54;25.30;37.00
12874;DHT22;6505;51.114;13.128;2023-06-14T11:36:25;25.20;37.00
12874;DHT22;6505;51.114;13.128;2023-06-14T11:39:01;25.20;37.30
12874;DHT22;6505;51.114;13.128;2023-06-14T11:41:34;25.20;37.60
12874;DHT22;6505;51.114;13.128;2023-06-14T11:44:04;25.20;37.90
12874;DHT22;6505;51.114;13.128;2023-06-14T11:46:34;25.20;38.10
12874;DHT22;6505;51.114;13.128;2023-06-14T11:49:03;25.20;38.20
12874;DHT22;6505;51.114;13.128;2023-06-14T11:51:34;25.20;38.30
12874;DHT22;6505;51.114;13.128;2023-06-14T11:54:06;25.20;38.50
12874;DHT22;6505;51.114;13.128;2023-06-14T11:56:34;25.20;38.30
12874;DHT22;6505;51.114;13.128;2023-06-14T11:59:04;25.20;38.50
12874;DHT22;6505;51.114;13.128;2023-06-14T12:01:36;25.20;38.50
12874;DHT22;6505;51.114;13.128;2023-06-14T12:04:06;25.30;38.60
12874;DHT22;6505;51.114;13.128;2023-06-14T12:06:34;25.30;39.40
12874;DHT22;6505;51.114;13.128;2023-06-14T12:09:08;25.30;38.50
12874;DHT22;6505;51.114;13.128;2023-06-14T12:11:40;25.30;38.50
12874;DHT22;6505;51.114;13.128;2023-06-14T12:14:08;25.30;38.50
12874;DHT22;6505;51.114;13.128;2023-06-14T12:16:38;25.30;38.70
12874;DHT22;6505;51.114;13.128;2023-06-14T12:19:11;25.30;39.00
12874;DHT22;6505;51.114;13.128;2023-06-14T12:21:41;25.30;39.30
12874;DHT22;6505;51.114;13.128;2023-06-14T12:24:12;25.30;39.50
12874;DHT22;6505;51.114;13.128;2023-06-14T12:26:41;25.30;39.60
12874;DHT22;6505;51.114;13.128;2023-06-14T12:29:09;25.30;40.10
12874;DHT22;6505;51.114;13.128;2023-06-14T12:31:39;25.30;40.10
12874;DHT22;6505;51.114;13.128;2023-06-14T12:34:07;25.30;40.00
12874;DHT22;6505;51.114;13.128;2023-06-14T12:36:36;25.30;40.40
12874;DHT22;6505;51.114;13.128;2023-06-14T12:39:08;25.20;40.50
12874;DHT22;6505;51.114;13.128;2023-06-14T12:41:38;25.30;40.80
12874;DHT22;6505;51.114;13.128;2023-06-14T12:44:08;25.20;40.60
12874;DHT22;6505;51.114;13.128;2023-06-14T12:46:36;25.20;40.70
12874;DHT22;6505;51.114;13.128;2023-06-14T12:49:08;25.20;41.00
12874;DHT22;6505;51.114;13.128;2023-06-14T12:51:36;25.20;40.70
12874;DHT22;6505;51.114;13.128;2023-06-14T12:54:05;25.30;40.60
12874;DHT22;6505;51.114;13.128;2023-06-14T12:56:33;25.30;40.70
12874;DHT22;6505;51.114;13.128;2023-06-14T12:59:02;25.20;40.60
12874;DHT22;6505;51.114;13.128;2023-06-14T13:01:30;25.30;40.70
12874;DHT22;6505;51.114;13.128;2023-06-14T13:03:58;25.30;40.70
12874;DHT22;6505;51.114;13.128;2023-06-14T13:06:27;25.30;40.60
12874;DHT22;6505;51.114;13.128;2023-06-14T13:08:56;25.30;41.10
12874;DHT22;6505;51.114;13.128;2023-06-14T13:11:25;25.30;41.00
12874;DHT22;6505;51.114;13.128;2023-06-14T13:13:53;25.30;40.90
12874;DHT22;6505;51.114;13.128;2023-06-14T13:16:23;25.30;41.20
12874;DHT22;6505;51.114;13.128;2023-06-14T13:18:51;25.30;41.20
12874;DHT22;6505;51.114;13.128;2023-06-14T13:21:19;25.30;41.10
12874;DHT22;6505;51.114;13.128;2023-06-14T13:23:47;25.30;41.80
12874;DHT22;6505;51.114;13.128;2023-06-14T13:26:15;25.30;42.10
12874;DHT22;6505;51.114;13.128;2023-06-14T13:28:45;25.30;42.00
12874;DHT22;6505;51.114;13.128;2023-06-14T13:31:13;25.30;42.00
12874;DHT22;6505;51.114;13.128;2023-06-14T13:33:43;25.30;42.00
12874;DHT22;6505;51.114;13.128;2023-06-14T13:36:10;25.30;42.00
12874;DHT22;6505;51.114;13.128;2023-06-14T13:38:38;25.20;41.80
12874;DHT22;6505;51.114;13.128;2023-06-14T13:41:06;25.20;42.00
12874;DHT22;6505;51.114;13.128;2023-06-14T13:43:34;25.20;41.90
12874;DHT22;6505;51.114;13.128;2023-06-14T13:46:02;25.20;42.30
12874;DHT22;6505;51.114;13.128;2023-06-14T13:48:30;25.20;42.20
12874;DHT22;6505;51.114;13.128;2023-06-14T13:51:00;25.20;42.20
12874;DHT22;6505;51.114;13.128;2023-06-14T13:53:31;25.10;42.00
12874;DHT22;6505;51.114;13.128;2023-06-14T13:55:58;25.10;42.30
12874;DHT22;6505;51.114;13.128;2023-06-14T13:58:26;25.10;42.30
12874;DHT22;6505;51.114;13.128;2023-06-14T14:00:55;25.20;42.40
12874;DHT22;6505;51.114;13.128;2023-06-14T14:03:26;25.10;42.50
12874;DHT22;6505;51.114;13.128;2023-06-14T14:05:54;25.20;42.90
12874;DHT22;6505;51.114;13.128;2023-06-14T14:08:24;25.10;42.50
12874;DHT22;6505;51.114;13.128;2023-06-14T14:10:52;25.20;42.40
12874;DHT22;6505;51.114;13.128;2023-06-14T14:13:21;25.10;42.40
12874;DHT22;6505;51.114;13.128;2023-06-14T14:15:49;25.10;42.00
12874;DHT22;6505;51.114;13.128;2023-06-14T14:18:17;25.00;42.10
12874;DHT22;6505;51.114;13.128;2023-06-14T14:20:48;25.00;42.40
12874;DHT22;6505;51.114;13.128;2023-06-14T14:23:16;25.10;42.20
12874;DHT22;6505;51.114;13.128;2023-06-14T14:25:45;25.00;42.00
12874;DHT22;6505;51.114;13.128;2023-06-14T14:28:13;25.00;42.10
12874;DHT22;6505;51.114;13.128;2023-06-14T14:30:43;25.00;42.40
12874;DHT22;6505;51.114;13.128;2023-06-14T14:33:11;25.10;42.80
12874;DHT22;6505;51.114;13.128;2023-06-14T14:35:42;25.00;42.80
12874;DHT22;6505;51.114;13.128;2023-06-14T14:38:11;25.00;42.90
12874;DHT22;6505;51.114;13.128;2023-06-14T14:40:39;24.90;43.10
12874;DHT22;6505;51.114;13.128;2023-06-14T14:43:08;25.00;43.00
12874;DHT22;6505;51.114;13.128;2023-06-14T14:45:37;25.00;42.80
12874;DHT22;6505;51.114;13.128;2023-06-14T14:48:05;25.00;42.50
12874;DHT22;6505;51.114;13.128;2023-06-14T14:50:33;25.00;42.60
12874;DHT22;6505;51.114;13.128;2023-06-14T14:53:01;24.90;42.30
12874;DHT22;6505;51.114;13.128;2023-06-14T14:55:29;24.90;42.40
12874;DHT22;6505;51.114;13.128;2023-06-14T14:57:58;24.90;41.70
12874;DHT22;6505;51.114;13.128;2023-06-14T15:00:28;25.00;41.00
12874;DHT22;6505;51.114;13.128;2023-06-14T15:02:56;24.90;40.90
12874;DHT22;6505;51.114;13.128;2023-06-14T15:05:24;25.00;41.00
12874;DHT22;6505;51.114;13.128;2023-06-14T15:07:52;24.90;40.60
12874;DHT22;6505;51.114;13.128;2023-06-14T15:10:20;24.90;40.90
12874;DHT22;6505;51.114;13.128;2023-06-14T15:12:48;24.90;41.40
12874;DHT22;6505;51.114;13.128;2023-06-14T15:15:16;24.90;41.30
12874;DHT22;6505;51.114;13.128;2023-06-14T15:17:45;24.90;41.40
12874;DHT22;6505;51.114;13.128;2023-06-14T15:20:13;24.90;41.60
12874;DHT22;6505;51.114;13.128;2023-06-14T15:22:42;24.90;41.80
12874;DHT22;6505;51.114;13.128;2023-06-14T15:25:10;24.90;41.80
12874;DHT22;6505;51.114;13.128;2023-06-14T15:27:38;25.00;42.00
12874;DHT22;6505;51.114;13.128;2023-06-14T15:30:07;25.00;41.80
12874;DHT22;6505;51.114;13.128;2023-06-14T15:32:36;24.90;41.40
12874;DHT22;6505;51.114;13.128;2023-06-14T15:35:05;24.90;41.00
12874;DHT22;6505;51.114;13.128;2023-06-14T15:37:34;24.90;41.00
12874;DHT22;6505;51.114;13.128;2023-06-14T15:40:02;24.90;40.90
12874;DHT22;6505;51.114;13.128;2023-06-14T15:42:30;25.00;41.20
12874;DHT22;6505;51.114;13.128;2023-06-14T15:44:58;24.90;41.10
12874;DHT22;6505;51.114;13.128;2023-06-14T15:47:26;24.90;41.10